La Ronge Airport
CYVC : now visible

Airfield :











YOU CAN JOIN US ON...

 
LOGIN :

Register | Disclaimer

   EN    FR    IT 

 









Legend :    VFR   Marginal VFR   IFR   Intensive IFR   Very Intensive IFR
Visi :
Ceiling :
>= 8 km
>= 3000ft
5 to 8 km
1000 to 3000 ft
1500m to 5 km
500 to 1000 ft
800 to 1500m
200 to 500 ft
< 800m
< 200 ft
Symbols :   Thunderstorms  Fog  Heavy snow  Heavy precipitations  Wind > 20 kt






- Airport Elevation : 1242 ft
- IATA code : YVC


CYVC - La Ronge

CURRENT METAR :
  • 101100Z 26003KT 210V280 12SM -SN OVC025 M05/M08 A2974 RMK SC8 SLP096

EXPIRED METARs :
  • 101022Z 00000KT 15SM -SN OVC040 M08/M10 A2975 RMK SC8 SLP101
  • 101000Z 00000KT 15SM BKN050 M08/M10 A2974 RMK SC6 SLP098
  • 100900Z 00000KT 15SM SKC M10/M13 A2974 RMK SLP100

TAF TAF CYVC
Valid from the 10 at 07:00 until the 10 at 19:00 UTC


100638Z 1007/1019 20006KT P6SM FEW060
BECMG 1012/1014 30012G22KT
FM101400 30012G22KT P6SM BKN020
TEMPO 1014/1019 4SM -SHSN RMK NXT FCST BY 101300Z



MET'MAP, your aeronautical weather chart ! - Copyright ORBIFLY December 2007 - Disclaimer

ORBIFLY MET'MAP TEAM :

Programming & Development : Alexandra Zaïnal
Concept & original design : Baudouin d'Aumeries
Assistance for programming : Marc-Olivier Méhu
Technical & hardware support : Manuel Goepfert

Contact : metmap@orbifly.com




SOURCES & CREDITS :

   NOAA       Earth
Advisory